Time;durP1;ratioP1;P1;durP2;ratioP2;P2;SDS_P1;SDS_P2;PMS_P1;PMS_P2;Temp;Humidity;BMP_temperature;BMP_pressure;BME280_temperature;BME280_humidity;BME280_pressure;Samples;Min_cycle;Max_cycle;Signal;HPM_P1;HPM_P2
2021/12/13 00:00:31;;;;;;;28.17;16.35;;;2.90;99.90;;;;;;5028725;28;20200;-91
2021/12/13 00:03:31;;;;;;;28.75;16.60;;;2.80;99.90;;;;;;5000905;28;20222;-88
2021/12/13 00:06:08;;;;;;;30.13;17.02;;;2.80;99.90;;;;;;5000775;28;20253;-88
2021/12/13 00:08:38;;;;;;;27.85;17.58;;;2.80;99.90;;;;;;5000950;28;20171;-87
2021/12/13 00:11:16;;;;;;;30.25;16.77;;;2.80;99.90;;;;;;5000813;28;20621;-90
2021/12/13 00:13:46;;;;;;;25.95;16.95;;;2.80;99.90;;;;;;5001240;28;20194;-91
2021/12/13 00:16:12;;;;;;;27.52;16.90;;;2.80;99.90;;;;;;5002137;28;20203;-91
2021/12/13 00:18:46;;;;;;;27.90;17.52;;;2.80;99.90;;;;;;5022047;28;20180;-92
2021/12/13 00:21:20;;;;;;;32.58;17.00;;;2.80;99.90;;;;;;5004318;28;20215;-90
2021/12/13 00:23:57;;;;;;;29.83;15.93;;;2.80;99.90;;;;;;5001924;28;20221;-88
2021/12/13 00:26:44;;;;;;;28.60;16.38;;;2.80;99.90;;;;;;5019201;28;20274;-87
2021/12/13 00:29:20;;;;;;;27.52;17.10;;;2.80;99.90;;;;;;5000141;28;20182;-91
2021/12/13 00:32:05;;;;;;;27.25;17.08;;;2.80;99.90;;;;;;5022766;28;20207;-88
2021/12/13 00:34:39;;;;;;;31.23;17.30;;;2.80;99.90;;;;;;5007753;28;20186;-87
2021/12/13 00:37:18;;;;;;;23.90;15.98;;;2.80;99.90;;;;;;5000208;28;20262;-91
2021/12/13 00:40:01;;;;;;;32.70;18.25;;;2.70;99.90;;;;;;5001349;28;20206;-91
2021/12/13 00:42:33;;;;;;;30.63;16.00;;;2.80;99.90;;;;;;5000210;28;20746;-91
2021/12/13 00:45:05;;;;;;;26.75;16.23;;;2.70;99.90;;;;;;5000993;28;20230;-88
2021/12/13 00:47:33;;;;;;;27.92;17.05;;;2.70;99.90;;;;;;5019451;28;20194;-87
2021/12/13 00:50:36;;;;;;;27.70;16.27;;;2.70;99.90;;;;;;5037490;28;20683;-91
2021/12/13 00:53:03;;;;;;;30.77;16.10;;;2.80;99.90;;;;;;5020245;28;20221;-87
2021/12/13 00:55:32;;;;;;;33.00;16.83;;;2.80;99.90;;;;;;5019385;28;20249;-87
2021/12/13 00:58:12;;;;;;;23.73;16.27;;;2.80;99.90;;;;;;5019492;28;20559;-87
2021/12/13 01:00:49;;;;;;;24.80;15.93;;;2.80;99.90;;;;;;5038131;28;20636;-88
2021/12/13 01:03:41;;;;;;;30.60;17.35;;;2.90;99.90;;;;;;5020514;28;20260;-88
2021/12/13 01:06:45;;;;;;;23.63;14.35;;;2.90;99.90;;;;;;5012059;28;20211;-88
2021/12/13 01:09:31;;;;;;;27.00;15.95;;;2.90;99.90;;;;;;5019411;28;20178;-91
2021/12/13 01:12:00;;;;;;;27.08;16.42;;;2.90;99.90;;;;;;5019447;28;20329;-87
2021/12/13 01:14:41;;;;;;;28.55;17.42;;;2.90;99.90;;;;;;5019471;28;20182;-87
2021/12/13 01:18:15;;;;;;;27.17;16.63;;;2.90;99.90;;;;;;5058268;28;20175;-89
2021/12/13 01:21:13;;;;;;;25.30;13.90;;;2.90;99.90;;;;;;5002253;28;20237;-91
2021/12/13 01:23:51;;;;;;;27.48;15.70;;;3.00;99.90;;;;;;5019079;28;20222;-91
2021/12/13 01:29:13;;;;;;;25.73;15.00;;;3.00;99.90;;;;;;5036706;28;20178;-90
2021/12/13 01:31:46;;;;;;;24.08;13.98;;;3.00;99.90;;;;;;5025607;28;20356;-91
2021/12/13 01:34:13;;;;;;;26.60;14.52;;;3.00;99.90;;;;;;5018902;28;20206;-88
2021/12/13 01:37:04;;;;;;;21.40;12.77;;;3.00;99.90;;;;;;5022737;28;20565;-90
2021/12/13 01:39:34;;;;;;;24.45;13.68;;;3.10;99.90;;;;;;5018861;28;20181;-91
2021/12/13 01:42:09;;;;;;;24.23;15.25;;;3.10;99.90;;;;;;5018804;28;20186;-91
2021/12/13 01:44:41;;;;;;;20.85;13.52;;;3.10;99.90;;;;;;5018405;28;20175;-87
2021/12/13 01:47:19;;;;;;;26.45;13.23;;;3.10;99.90;;;;;;5018584;28;20643;-88
2021/12/13 01:49:54;;;;;;;21.30;14.73;;;3.10;99.90;;;;;;5019456;28;20663;-88
2021/12/13 01:52:25;;;;;;;22.67;14.52;;;3.10;99.90;;;;;;5018322;28;20702;-91
2021/12/13 01:54:54;;;;;;;26.60;14.45;;;3.10;99.90;;;;;;5039918;28;20190;-88
2021/12/13 02:00:43;;;;;;;25.02;13.93;;;3.10;99.90;;;;;;5045447;28;20228;-88
2021/12/13 02:02:53;;;;;;;24.92;14.65;;;3.10;99.90;;;;;;5045051;28;20237;-91
2021/12/13 02:05:26;;;;;;;26.98;15.27;;;3.10;99.90;;;;;;5035998;28;20206;-88
2021/12/13 02:08:00;;;;;;;26.00;15.70;;;3.10;99.90;;;;;;5035551;28;20329;-90
2021/12/13 02:10:33;;;;;;;22.23;14.43;;;3.10;99.90;;;;;;5018308;28;20202;-90
2021/12/13 02:13:04;;;;;;;29.38;15.45;;;3.10;99.90;;;;;;5036388;28;20171;-88
2021/12/13 02:18:26;;;;;;;26.75;14.88;;;3.10;99.90;;;;;;5037650;28;20217;-88
2021/12/13 02:21:03;;;;;;;25.20;14.18;;;3.10;99.90;;;;;;5020300;28;20203;-91
2021/12/13 02:23:30;;;;;;;20.10;13.82;;;3.10;99.90;;;;;;5020369;28;20218;-88
2021/12/13 02:25:57;;;;;;;25.80;15.15;;;3.10;99.90;;;;;;5039293;28;20209;-88
2021/12/13 02:28:28;;;;;;;27.38;16.05;;;3.20;99.90;;;;;;5018526;28;20615;-87
2021/12/13 02:31:05;;;;;;;26.52;14.43;;;3.20;99.90;;;;;;5035651;28;20285;-88
2021/12/13 02:33:33;;;;;;;20.83;12.98;;;3.20;99.90;;;;;;5035331;28;20190;-88
2021/12/13 02:36:06;;;;;;;23.58;13.30;;;3.20;99.90;;;;;;5035460;28;20210;-88
2021/12/13 02:38:32;;;;;;;24.60;13.70;;;3.10;99.90;;;;;;5019203;28;20194;-88
2021/12/13 02:41:00;;;;;;;24.63;13.65;;;3.10;99.90;;;;;;5017802;28;20256;-91
2021/12/13 02:43:32;;;;;;;21.10;13.60;;;3.10;99.90;;;;;;5017526;28;20211;-88
2021/12/13 02:45:59;;;;;;;23.20;14.05;;;3.10;99.90;;;;;;5034946;28;20234;-88
2021/12/13 02:48:28;;;;;;;20.70;12.02;;;3.10;99.90;;;;;;5035225;28;20236;-88
2021/12/13 02:51:07;;;;;;;23.92;13.48;;;3.10;99.90;;;;;;5018472;28;20224;-92
2021/12/13 02:53:38;;;;;;;21.02;12.45;;;3.10;99.90;;;;;;5034088;28;20181;-89
2021/12/13 02:56:04;;;;;;;23.15;13.73;;;3.00;99.90;;;;;;5036303;28;20189;-90
2021/12/13 02:58:31;;;;;;;25.05;14.00;;;3.00;99.90;;;;;;5023538;28;20245;-87
2021/12/13 03:01:19;;;;;;;23.92;13.73;;;3.00;99.90;;;;;;5036847;28;20278;-91
2021/12/13 03:03:48;;;;;;;21.60;12.50;;;3.00;99.90;;;;;;5018332;28;20601;-87
2021/12/13 03:06:18;;;;;;;21.35;11.95;;;3.00;99.90;;;;;;5017613;28;20293;-90
2021/12/13 03:08:52;;;;;;;19.27;12.32;;;2.90;99.90;;;;;;5019088;28;20198;-90
2021/12/13 03:11:24;;;;;;;17.70;11.05;;;2.90;99.90;;;;;;5037120;28;20199;-90
2021/12/13 03:13:58;;;;;;;21.05;11.32;;;2.90;99.90;;;;;;5017076;28;20265;-91
2021/12/13 03:16:30;;;;;;;16.83;9.75;;;3.00;99.90;;;;;;5019086;28;20209;-88
2021/12/13 03:19:08;;;;;;;16.92;10.13;;;3.00;99.90;;;;;;5017507;28;20174;-91
2021/12/13 03:22:11;;;;;;;19.58;10.35;;;3.00;99.90;;;;;;5017533;28;20209;-87
2021/12/13 03:24:48;;;;;;;18.25;11.07;;;3.00;99.90;;;;;;5016544;28;20190;-90
2021/12/13 03:27:46;;;;;;;17.52;10.55;;;3.00;99.90;;;;;;5020899;28;20169;-91
2021/12/13 03:30:19;;;;;;;18.42;10.48;;;2.90;99.90;;;;;;5036608;28;20229;-91
2021/12/13 03:33:04;;;;;;;17.48;9.93;;;2.90;99.90;;;;;;5040799;28;20212;-88
2021/12/13 03:35:38;;;;;;;17.67;10.88;;;2.90;99.90;;;;;;5041215;28;20277;-91
2021/12/13 03:38:13;;;;;;;21.77;10.82;;;2.90;99.90;;;;;;5023500;28;20182;-87
2021/12/13 03:40:40;;;;;;;19.23;10.85;;;2.90;99.90;;;;;;5041126;28;20647;-90
2021/12/13 03:43:15;;;;;;;17.13;10.60;;;2.90;99.90;;;;;;5024497;28;20664;-89
2021/12/13 03:45:48;;;;;;;20.45;11.20;;;2.90;99.90;;;;;;5040796;28;20229;-91
2021/12/13 03:48:17;;;;;;;17.48;10.40;;;2.90;99.90;;;;;;5033016;28;20273;-89
2021/12/13 03:50:46;;;;;;;23.25;10.35;;;2.90;99.90;;;;;;5044096;28;20549;-87
2021/12/13 03:53:16;;;;;;;18.60;10.07;;;2.90;99.90;;;;;;5029945;28;20182;-91
2021/12/13 03:55:46;;;;;;;23.45;10.77;;;2.90;99.90;;;;;;5027099;28;20198;-90
2021/12/13 03:58:15;;;;;;;20.52;10.52;;;2.90;99.90;;;;;;5029628;28;20242;-91
2021/12/13 04:00:56;;;;;;;15.60;9.38;;;2.90;99.90;;;;;;5025786;28;20683;-88
2021/12/13 04:03:24;;;;;;;20.27;10.00;;;2.90;99.90;;;;;;5023274;28;20206;-88
2021/12/13 04:05:50;;;;;;;22.20;11.20;;;3.00;99.90;;;;;;5023003;28;20241;-88
2021/12/13 04:08:18;;;;;;;17.13;11.02;;;3.00;99.90;;;;;;5024467;28;20192;-91
2021/12/13 04:10:48;;;;;;;16.63;10.20;;;3.10;99.90;;;;;;5023042;28;20566;-90
2021/12/13 04:13:16;;;;;;;22.45;11.63;;;3.10;99.90;;;;;;5023103;28;20200;-88
2021/12/13 04:16:11;;;;;;;23.85;12.30;;;3.10;99.90;;;;;;5041038;28;20655;-87
2021/12/13 04:21:23;;;;;;;25.20;11.93;;;3.20;99.90;;;;;;5041236;28;20194;-91
2021/12/13 04:23:55;;;;;;;22.48;12.95;;;3.20;99.90;;;;;;5022884;28;20640;-87
2021/12/13 04:26:22;;;;;;;28.30;15.43;;;3.20;99.90;;;;;;5023322;28;20234;-88
2021/12/13 04:28:51;;;;;;;25.60;15.93;;;3.20;99.90;;;;;;5022914;28;20189;-92
2021/12/13 04:31:20;;;;;;;31.92;17.77;;;3.20;99.90;;;;;;5022901;28;20230;-92
2021/12/13 04:33:53;;;;;;;27.48;13.68;;;3.20;99.90;;;;;;5043645;28;20178;-91
2021/12/13 04:36:29;;;;;;;26.83;14.88;;;3.20;99.90;;;;;;5022734;28;20198;-92
2021/12/13 04:39:14;;;;;;;26.85;13.85;;;3.20;99.90;;;;;;5020121;28;20182;-87
2021/12/13 04:41:50;;;;;;;21.95;12.40;;;3.20;99.90;;;;;;5022087;28;20631;-89
2021/12/13 04:44:16;;;;;;;23.33;13.57;;;3.20;99.90;;;;;;5048238;28;20564;-87
2021/12/13 04:46:44;;;;;;;21.97;13.37;;;3.20;99.90;;;;;;5039244;28;20230;-91
2021/12/13 04:49:18;;;;;;;20.25;13.27;;;3.20;99.90;;;;;;5037274;28;20253;-87
2021/12/13 04:51:49;;;;;;;25.35;13.15;;;3.20;99.90;;;;;;5020043;28;20210;-87
2021/12/13 04:54:16;;;;;;;24.83;15.52;;;3.20;99.90;;;;;;5019618;28;20174;-92
2021/12/13 04:56:42;;;;;;;23.85;14.35;;;3.20;99.90;;;;;;5019459;28;20207;-88
2021/12/13 04:59:11;;;;;;;27.88;14.43;;;3.20;99.90;;;;;;5019932;28;20174;-92
2021/12/13 05:01:37;;;;;;;27.13;14.40;;;3.20;99.90;;;;;;5018825;28;20203;-91
2021/12/13 05:04:06;;;;;;;27.70;15.48;;;3.20;99.90;;;;;;5036964;28;20687;-88
2021/12/13 05:06:36;;;;;;;22.27;14.32;;;3.20;99.90;;;;;;5019190;28;20206;-91
2021/12/13 05:09:10;;;;;;;26.60;14.23;;;3.20;99.90;;;;;;5019382;28;20217;-92
2021/12/13 05:11:45;;;;;;;27.35;16.55;;;3.20;99.90;;;;;;5019257;28;20203;-88
2021/12/13 05:14:12;;;;;;;32.00;15.15;;;3.20;99.90;;;;;;5019892;28;20174;-87
2021/12/13 05:16:46;;;;;;;29.02;14.77;;;3.20;99.90;;;;;;5019739;28;20206;-88
2021/12/13 05:19:15;;;;;;;22.77;14.00;;;3.20;99.90;;;;;;5018608;28;20231;-92
2021/12/13 05:21:44;;;;;;;26.83;15.80;;;3.20;99.90;;;;;;5036337;28;20198;-91
2021/12/13 05:24:17;;;;;;;31.42;15.10;;;3.20;99.90;;;;;;5033952;28;20214;-87
2021/12/13 05:27:00;;;;;;;35.55;17.45;;;3.20;99.90;;;;;;5036571;28;20206;-91
2021/12/13 05:29:45;;;;;;;27.30;15.27;;;3.20;99.90;;;;;;5040355;28;20253;-91
2021/12/13 05:32:30;;;;;;;30.05;15.52;;;3.20;99.90;;;;;;5050371;28;20189;-88
2021/12/13 05:35:01;;;;;;;28.98;16.63;;;3.20;99.90;;;;;;5017031;28;20671;-87
2021/12/13 05:37:39;;;;;;;28.60;16.02;;;3.10;99.90;;;;;;5034578;28;20213;-87
2021/12/13 05:40:12;;;;;;;35.72;18.55;;;3.20;99.90;;;;;;5013700;28;20675;-88
2021/12/13 05:42:57;;;;;;;41.03;18.85;;;3.20;99.90;;;;;;4997074;28;20267;-92
2021/12/13 05:46:08;;;;;;;40.78;21.45;;;3.30;99.90;;;;;;4993080;28;20245;-92
2021/12/13 05:48:34;;;;;;;30.83;16.30;;;3.30;99.90;;;;;;5005176;28;20175;-91
2021/12/13 05:51:04;;;;;;;29.37;14.53;;;3.40;99.90;;;;;;4975939;28;20242;-88
2021/12/13 05:53:35;;;;;;;30.55;14.68;;;3.40;99.90;;;;;;4977009;28;20187;-87
2021/12/13 05:56:12;;;;;;;25.45;15.02;;;3.40;99.90;;;;;;4975823;28;20225;-92
2021/12/13 05:58:53;;;;;;;27.60;14.25;;;3.50;99.90;;;;;;4975625;28;20477;-92
2021/12/13 06:01:52;;;;;;;22.77;14.25;;;3.50;99.90;;;;;;4990267;28;20210;-92
2021/12/13 06:04:45;;;;;;;23.58;14.07;;;3.40;99.90;;;;;;4977705;28;20230;-88
2021/12/13 06:07:24;;;;;;;25.80;15.48;;;3.30;99.90;;;;;;4990795;28;20187;-87
2021/12/13 06:09:58;;;;;;;24.00;14.32;;;3.20;99.90;;;;;;4994020;28;20206;-92
2021/12/13 06:12:45;;;;;;;24.88;14.90;;;3.20;99.90;;;;;;4992629;28;20202;-91
2021/12/13 06:15:16;;;;;;;27.33;17.55;;;3.10;99.90;;;;;;4977915;28;20239;-88
2021/12/13 06:17:54;;;;;;;36.53;24.10;;;3.00;99.90;;;;;;4976772;28;20188;-87
2021/12/13 06:20:25;;;;;;;33.08;21.52;;;2.90;99.90;;;;;;4978069;28;20827;-93
2021/12/13 06:22:51;;;;;;;33.47;19.90;;;2.90;99.90;;;;;;4996115;28;20567;-93
2021/12/13 06:25:22;;;;;;;32.03;19.23;;;2.80;99.90;;;;;;4977690;28;20210;-87
2021/12/13 06:27:50;;;;;;;31.77;20.13;;;2.80;99.90;;;;;;4978509;28;20427;-92
2021/12/13 06:30:23;;;;;;;28.05;17.25;;;2.70;99.90;;;;;;4989778;28;20654;-88
2021/12/13 06:33:02;;;;;;;28.10;19.38;;;2.70;99.90;;;;;;4992112;28;20660;-92
2021/12/13 06:35:48;;;;;;;30.25;19.42;;;2.70;99.90;;;;;;4975585;28;20206;-91
2021/12/13 06:38:20;;;;;;;34.53;21.02;;;2.70;99.90;;;;;;4991901;28;20246;-88
2021/12/13 06:41:07;;;;;;;32.85;19.27;;;2.70;99.90;;;;;;4993789;28;20210;-87
2021/12/13 06:43:45;;;;;;;47.42;29.67;;;2.70;99.90;;;;;;4975360;28;20565;-87
2021/12/13 06:46:56;;;;;;;39.85;28.23;;;2.70;99.90;;;;;;5002134;28;20649;-88
2021/12/13 06:49:37;;;;;;;30.58;19.30;;;2.70;99.90;;;;;;4987578;28;20213;-92
2021/12/13 06:52:12;;;;;;;29.77;19.40;;;2.70;99.90;;;;;;4997262;28;20622;-92
2021/12/13 06:54:44;;;;;;;33.60;19.30;;;2.70;99.90;;;;;;5000669;28;20189;-88
2021/12/13 06:57:20;;;;;;;31.00;19.27;;;2.70;99.90;;;;;;5014372;28;20297;-88
2021/12/13 07:00:17;;;;;;;37.78;21.80;;;2.80;99.90;;;;;;4994885;28;20233;-89
2021/12/13 07:02:52;;;;;;;32.97;19.58;;;2.80;99.90;;;;;;4993060;28;20349;-88
2021/12/13 07:05:31;;;;;;;40.05;23.02;;;2.80;99.90;;;;;;5017225;28;20275;-88
2021/12/13 07:08:08;;;;;;;33.38;19.38;;;2.80;99.90;;;;;;4998919;28;20698;-88
2021/12/13 07:10:38;;;;;;;38.28;20.90;;;2.80;99.90;;;;;;4992922;28;20210;-88
2021/12/13 07:13:20;;;;;;;39.30;24.05;;;2.80;99.90;;;;;;4994301;28;20278;-87
2021/12/13 07:16:00;;;;;;;28.35;17.48;;;2.80;99.90;;;;;;4993364;28;20225;-88
2021/12/13 07:18:46;;;;;;;30.08;19.63;;;2.80;99.90;;;;;;5010094;28;20175;-91
2021/12/13 07:21:20;;;;;;;26.92;17.40;;;2.80;99.90;;;;;;4993499;28;20211;-87
2021/12/13 07:23:58;;;;;;;31.88;20.48;;;2.80;99.90;;;;;;4994574;28;20746;-88
2021/12/13 07:26:40;;;;;;;29.67;17.83;;;2.80;99.90;;;;;;4994423;28;20700;-88
2021/12/13 07:29:19;;;;;;;29.90;17.52;;;2.70;99.90;;;;;;5025564;28;20182;-92
2021/12/13 07:31:59;;;;;;;29.10;17.10;;;2.70;99.90;;;;;;5023756;28;20221;-92
2021/12/13 07:34:25;;;;;;;34.47;17.77;;;2.70;99.90;;;;;;4996154;28;20222;-92
2021/12/13 07:36:55;;;;;;;31.43;17.30;;;2.70;99.90;;;;;;4998801;28;20297;-88
2021/12/13 07:39:29;;;;;;;30.05;18.80;;;2.70;99.90;;;;;;5014849;28;20190;-88
2021/12/13 07:41:59;;;;;;;26.70;17.45;;;2.70;99.90;;;;;;4995351;28;21145;-88
2021/12/13 07:44:25;;;;;;;26.98;16.83;;;2.70;99.90;;;;;;5009983;28;20214;-87
2021/12/13 07:47:07;;;;;;;30.33;17.40;;;2.70;99.90;;;;;;4992768;28;20586;-92
2021/12/13 07:49:36;;;;;;;27.33;17.17;;;2.70;99.90;;;;;;4995845;28;20213;-88
2021/12/13 07:52:05;;;;;;;26.52;15.50;;;2.70;99.90;;;;;;5010574;28;20609;-92
2021/12/13 07:54:42;;;;;;;26.15;16.65;;;2.70;99.90;;;;;;4994759;28;20191;-88
2021/12/13 07:57:32;;;;;;;27.65;15.73;;;2.70;99.90;;;;;;5013608;28;20277;-92
2021/12/13 08:00:08;;;;;;;24.58;15.65;;;2.70;99.90;;;;;;4995176;28;20577;-88
2021/12/13 08:02:34;;;;;;;28.27;15.85;;;2.80;99.90;;;;;;4994562;28;20317;-91
2021/12/13 08:05:13;;;;;;;28.30;15.10;;;2.80;99.90;;;;;;4993527;28;20705;-88
2021/12/13 08:07:42;;;;;;;21.63;15.02;;;2.80;99.90;;;;;;5011860;28;20254;-88
2021/12/13 08:10:19;;;;;;;27.80;14.15;;;2.80;99.90;;;;;;4995124;28;20209;-88
2021/12/13 08:12:55;;;;;;;29.35;18.50;;;2.80;99.90;;;;;;4985839;28;20191;-92
2021/12/13 08:15:47;;;;;;;27.38;15.73;;;2.70;99.90;;;;;;5010456;28;20206;-89
2021/12/13 08:18:22;;;;;;;26.23;17.40;;;2.70;99.90;;;;;;5020091;28;20222;-92
2021/12/13 08:20:57;;;;;;;34.25;19.80;;;2.70;99.90;;;;;;5028845;28;20628;-91
2021/12/13 08:23:27;;;;;;;29.58;17.90;;;2.70;99.90;;;;;;5014632;28;20251;-88
2021/12/13 08:25:57;;;;;;;24.38;15.38;;;2.60;99.90;;;;;;4995648;28;20202;-92
2021/12/13 08:28:39;;;;;;;25.30;16.42;;;2.60;99.90;;;;;;5013866;28;20179;-92
2021/12/13 08:31:08;;;;;;;43.22;31.27;;;2.70;99.90;;;;;;4994119;28;20751;-90
2021/12/13 08:33:44;;;;;;;39.75;29.80;;;2.70;99.90;;;;;;4995229;28;20365;-91
2021/12/13 08:36:17;;;;;;;169.98;107.65;;;2.70;99.90;;;;;;4997477;28;20738;-92
2021/12/13 08:39:04;;;;;;;178.95;114.35;;;2.70;99.90;;;;;;5028497;28;20814;-89
2021/12/13 08:41:42;;;;;;;45.55;31.42;;;2.70;99.90;;;;;;5023989;28;20753;-88
2021/12/13 08:44:11;;;;;;;34.58;20.42;;;2.70;99.90;;;;;;4992315;28;20380;-92
2021/12/13 08:46:43;;;;;;;33.75;20.63;;;2.70;99.90;;;;;;4986776;28;20695;-92
2021/12/13 08:49:17;;;;;;;29.10;17.85;;;2.70;99.90;;;;;;4999405;28;20285;-92
2021/12/13 08:52:10;;;;;;;35.30;19.90;;;2.80;99.90;;;;;;4992687;28;20265;-89
2021/12/13 08:54:51;;;;;;;28.90;20.25;;;2.80;99.90;;;;;;4990978;28;20187;-92
2021/12/13 08:57:38;;;;;;;30.00;18.52;;;2.80;99.90;;;;;;5003704;28;20187;-89
2021/12/13 09:00:17;;;;;;;30.73;17.33;;;2.80;99.90;;;;;;5013713;28;20203;-88
2021/12/13 09:02:57;;;;;;;27.58;16.08;;;2.90;99.90;;;;;;5017898;28;20226;-92
2021/12/13 09:05:35;;;;;;;26.55;17.55;;;2.90;99.90;;;;;;5006019;28;20521;-92
2021/12/13 09:08:06;;;;;;;32.10;18.80;;;2.90;99.90;;;;;;4997558;28;20207;-88
2021/12/13 09:10:47;;;;;;;30.38;17.15;;;2.90;99.90;;;;;;4997438;28;20556;-88
2021/12/13 09:13:14;;;;;;;26.73;15.60;;;3.00;99.90;;;;;;4998518;28;20542;-89
2021/12/13 09:15:42;;;;;;;27.17;17.88;;;3.00;99.90;;;;;;4998927;28;20202;-92
2021/12/13 09:18:09;;;;;;;27.63;18.80;;;3.00;99.90;;;;;;5017064;28;20242;-88
2021/12/13 09:20:46;;;;;;;28.50;18.95;;;3.00;99.90;;;;;;5033039;28;20684;-89
2021/12/13 09:23:29;;;;;;;29.08;19.67;;;3.00;99.90;;;;;;5001128;28;20274;-92
2021/12/13 09:26:04;;;;;;;27.00;18.60;;;3.00;99.90;;;;;;4982856;28;20208;-89
2021/12/13 09:28:34;;;;;;;31.13;19.17;;;3.00;99.90;;;;;;4999681;28;20211;-92
2021/12/13 09:31:20;;;;;;;37.88;25.73;;;3.10;99.90;;;;;;4983479;28;20350;-92
2021/12/13 09:34:14;;;;;;;26.33;17.77;;;3.10;99.90;;;;;;4996374;28;20183;-89
2021/12/13 09:36:44;;;;;;;27.88;18.25;;;3.10;99.90;;;;;;4988380;28;20215;-92
2021/12/13 09:39:17;;;;;;;24.90;17.35;;;3.20;99.90;;;;;;5016146;28;20351;-92
2021/12/13 09:41:58;;;;;;;25.15;15.95;;;3.20;99.90;;;;;;4993180;28;20237;-93
2021/12/13 09:44:32;;;;;;;29.00;16.50;;;3.30;99.90;;;;;;5028447;28;20210;-89
2021/12/13 09:47:09;;;;;;;25.63;17.58;;;3.30;99.90;;;;;;5010277;28;20222;-92
2021/12/13 09:49:40;;;;;;;26.73;17.95;;;3.40;99.90;;;;;;5016328;28;20178;-89
2021/12/13 09:52:31;;;;;;;24.95;15.95;;;3.50;99.90;;;;;;5030757;28;20198;-92
2021/12/13 09:55:12;;;;;;;25.10;16.08;;;3.60;99.90;;;;;;5013399;28;20345;-92
2021/12/13 09:57:40;;;;;;;27.10;17.00;;;3.60;99.90;;;;;;5032616;28;20191;-91
2021/12/13 10:00:29;;;;;;;26.17;15.02;;;3.60;99.90;;;;;;5035030;28;20214;-93
2021/12/13 10:03:01;;;;;;;32.03;18.98;;;3.60;99.90;;;;;;5011813;28;20241;-89
2021/12/13 10:05:32;;;;;;;38.80;19.30;;;3.60;99.90;;;;;;5019284;28;20206;-88
2021/12/13 10:08:04;;;;;;;32.22;19.95;;;3.60;99.90;;;;;;5014979;28;20206;-89
2021/12/13 10:10:39;;;;;;;30.38;18.70;;;3.60;99.90;;;;;;5013777;28;20206;-92
2021/12/13 10:13:10;;;;;;;28.10;16.02;;;3.60;99.90;;;;;;5012737;28;20193;-88
2021/12/13 10:15:50;;;;;;;22.77;14.63;;;3.70;99.90;;;;;;5042124;28;20256;-88
2021/12/13 10:18:19;;;;;;;37.40;21.25;;;3.70;99.90;;;;;;5041944;28;20197;-88
2021/12/13 10:20:59;;;;;;;23.95;15.57;;;3.80;99.90;;;;;;5026226;28;20194;-92
2021/12/13 10:23:29;;;;;;;36.47;21.65;;;3.80;99.90;;;;;;5032950;28;20249;-88
2021/12/13 10:25:57;;;;;;;31.88;21.80;;;3.80;99.90;;;;;;5014853;28;20199;-93
2021/12/13 10:28:35;;;;;;;23.83;15.27;;;3.90;99.90;;;;;;5031370;28;20229;-88
2021/12/13 10:31:14;;;;;;;27.80;18.50;;;3.90;99.90;;;;;;5029560;28;20206;-89
2021/12/13 10:33:40;;;;;;;64.47;36.92;;;3.90;99.90;;;;;;5029687;28;20186;-88
2021/12/13 10:36:08;;;;;;;52.13;30.85;;;4.00;99.90;;;;;;5028506;28;20533;-88
2021/12/13 10:38:45;;;;;;;29.95;22.08;;;4.00;99.90;;;;;;5017642;28;20191;-87
2021/12/13 10:41:16;;;;;;;26.52;20.90;;;4.00;99.90;;;;;;5008886;28;20236;-94
2021/12/13 10:43:48;;;;;;;23.90;16.98;;;4.00;99.90;;;;;;5010676;28;20309;-88
2021/12/13 10:46:23;;;;;;;29.05;17.17;;;4.00;99.90;;;;;;5009240;28;20579;-92
2021/12/13 10:48:54;;;;;;;20.30;14.85;;;4.00;99.90;;;;;;5005599;28;20285;-89
2021/12/13 10:51:33;;;;;;;27.83;15.45;;;4.00;99.90;;;;;;5027431;28;20240;-89
2021/12/13 10:54:17;;;;;;;26.38;15.45;;;4.20;99.90;;;;;;5030277;28;20182;-93
2021/12/13 10:56:56;;;;;;;26.05;16.00;;;4.30;99.90;;;;;;5014474;28;20225;-88
2021/12/13 10:59:24;;;;;;;24.40;15.98;;;4.40;99.90;;;;;;5042967;28;20174;-89
2021/12/13 11:01:54;;;;;;;28.00;15.93;;;4.60;99.90;;;;;;5041454;28;20230;-89
2021/12/13 11:04:28;;;;;;;29.65;19.80;;;4.70;99.90;;;;;;5010099;28;20565;-93
2021/12/13 11:06:55;;;;;;;27.17;17.40;;;4.80;99.90;;;;;;5011034;28;20249;-93
2021/12/13 11:09:24;;;;;;;28.52;19.15;;;4.90;99.90;;;;;;5028477;28;20189;-89
2021/12/13 11:12:04;;;;;;;47.28;29.05;;;5.00;99.90;;;;;;5004795;28;20230;-89
2021/12/13 11:14:33;;;;;;;29.45;19.45;;;5.10;99.90;;;;;;5014460;28;20189;-89
2021/12/13 11:17:05;;;;;;;31.77;19.38;;;5.20;99.90;;;;;;5012472;28;20214;-88
2021/12/13 11:19:34;;;;;;;26.08;16.95;;;5.20;99.90;;;;;;5016996;28;20190;-91
2021/12/13 11:22:06;;;;;;;24.75;15.75;;;5.20;99.90;;;;;;5018231;28;20198;-89
2021/12/13 11:24:35;;;;;;;26.65;17.38;;;5.30;99.90;;;;;;5015153;28;20257;-88
2021/12/13 11:27:08;;;;;;;24.10;15.20;;;5.50;99.90;;;;;;5048242;28;20214;-93
2021/12/13 11:29:36;;;;;;;25.02;15.73;;;5.60;99.90;;;;;;5026823;28;20305;-89
2021/12/13 11:32:39;;;;;;;20.40;12.73;;;5.80;99.90;;;;;;5025846;28;20182;-92
2021/12/13 11:35:07;;;;;;;20.25;13.18;;;6.00;99.90;;;;;;5041935;28;21232;-93
2021/12/13 11:38:16;;;;;;;19.80;13.30;;;6.20;99.90;;;;;;5033298;28;20182;-93
2021/12/13 11:41:19;;;;;;;23.45;14.63;;;6.40;99.90;;;;;;5008534;28;20240;-93
2021/12/13 11:44:03;;;;;;;25.52;17.77;;;6.60;99.90;;;;;;5006379;28;20226;-94
2021/12/13 11:46:34;;;;;;;22.23;15.40;;;6.80;99.90;;;;;;5022489;28;20371;-93
2021/12/13 11:49:48;;;;;;;32.53;20.40;;;7.00;99.90;;;;;;5048394;28;20527;-93
2021/12/13 11:52:42;;;;;;;39.00;27.27;;;7.10;99.90;;;;;;4940065;28;20220;-89
2021/12/13 11:55:35;;;;;;;39.22;26.80;;;7.20;99.90;;;;;;4973440;28;20209;-93
2021/12/13 11:58:49;;;;;;;20.25;13.05;;;7.20;99.90;;;;;;5030701;28;20738;-93
2021/12/13 12:01:39;;;;;;;20.60;14.38;;;7.30;99.90;;;;;;4988838;28;20211;-93
2021/12/13 12:04:30;;;;;;;20.13;14.40;;;7.30;99.90;;;;;;5030801;28;20214;-89
2021/12/13 12:07:14;;;;;;;23.77;14.63;;;7.40;99.90;;;;;;5017753;28;20392;-89
2021/12/13 12:10:00;;;;;;;25.90;15.05;;;7.50;99.90;;;;;;5029560;28;20432;-93
2021/12/13 12:13:02;;;;;;;20.83;14.10;;;7.50;99.90;;;;;;5014072;28;20194;-89
2021/12/13 12:15:28;;;;;;;20.42;14.02;;;7.60;99.90;;;;;;5044512;28;20206;-90
2021/12/13 12:17:59;;;;;;;24.70;15.85;;;7.70;99.90;;;;;;5007229;28;20183;-93
2021/12/13 12:20:31;;;;;;;25.73;16.38;;;7.70;99.90;;;;;;5025408;28;20244;-89
2021/12/13 12:22:59;;;;;;;24.55;15.98;;;7.70;99.90;;;;;;5026233;28;20570;-89
2021/12/13 12:25:27;;;;;;;22.67;15.25;;;7.70;99.90;;;;;;5028021;28;20347;-89
2021/12/13 12:27:57;;;;;;;20.52;14.52;;;7.70;99.90;;;;;;5016580;28;20434;-89
2021/12/13 12:30:30;;;;;;;44.75;26.05;;;7.70;99.90;;;;;;5031202;28;20213;-89
2021/12/13 12:33:00;;;;;;;28.08;18.85;;;7.70;99.90;;;;;;5031313;28;20211;-88
2021/12/13 12:35:36;;;;;;;25.38;15.85;;;7.70;99.90;;;;;;5012380;28;20573;-94
2021/12/13 12:38:10;;;;;;;19.20;13.82;;;7.70;99.90;;;;;;5031083;28;20254;-93
2021/12/13 12:40:52;;;;;;;26.42;18.50;;;7.70;99.90;;;;;;5019523;28;20287;-93
2021/12/13 12:43:21;;;;;;;27.80;19.90;;;7.70;99.90;;;;;;5018752;28;20229;-93
2021/12/13 12:45:53;;;;;;;23.50;15.60;;;7.60;99.90;;;;;;5041192;28;20222;-89
2021/12/13 12:48:39;;;;;;;23.98;16.27;;;7.70;99.90;;;;;;5031493;28;20199;-89
2021/12/13 12:51:25;;;;;;;25.77;15.60;;;7.60;99.90;;;;;;5003030;28;20204;-93
2021/12/13 12:53:56;;;;;;;24.92;16.02;;;7.60;99.90;;;;;;5007234;28;20199;-92
2021/12/13 12:56:24;;;;;;;20.90;14.52;;;7.60;99.90;;;;;;5005138;28;20668;-88
2021/12/13 12:59:26;;;;;;;23.92;17.10;;;7.60;99.90;;;;;;5004923;28;20194;-88
2021/12/13 13:01:59;;;;;;;24.90;15.68;;;7.50;99.90;;;;;;4984658;28;20223;-88
2021/12/13 13:04:46;;;;;;;48.63;24.70;;;7.50;99.90;;;;;;4992513;28;20219;-88
2021/12/13 13:07:27;;;;;;;30.55;18.42;;;7.50;99.90;;;;;;5017076;28;20210;-89
2021/12/13 13:09:58;;;;;;;28.25;17.58;;;7.40;99.90;;;;;;5019687;28;20184;-89
2021/12/13 13:12:30;;;;;;;27.60;15.68;;;7.40;99.90;;;;;;5012208;28;20193;-88
2021/12/13 13:15:16;;;;;;;20.33;14.27;;;7.40;99.90;;;;;;4993456;28;20195;-94
2021/12/13 13:17:53;;;;;;;29.88;17.15;;;7.50;99.90;;;;;;5012184;28;20663;-93
2021/12/13 13:20:24;;;;;;;29.38;16.15;;;7.50;99.90;;;;;;4997168;28;20201;-92
2021/12/13 13:22:51;;;;;;;27.75;16.20;;;7.60;99.90;;;;;;5025960;28;20285;-89
2021/12/13 13:25:28;;;;;;;25.63;16.65;;;7.60;99.90;;;;;;5029885;28;20297;-92
2021/12/13 13:27:55;;;;;;;20.77;14.73;;;7.80;99.90;;;;;;5029213;28;20194;-93
2021/12/13 13:30:34;;;;;;;27.35;16.27;;;7.90;99.90;;;;;;4998079;28;20211;-92
2021/12/13 13:33:00;;;;;;;23.92;17.25;;;8.00;99.90;;;;;;5028579;28;20187;-91